Nis, Serbia
Current Conditions -  °F | °C
As of 10:30 AM on Friday 24 Oct 2014 (Local Time) from LYNI Reporting Station
Broken Clouds Broken Clouds  
Wind Chill:   Ceiling: 1500
Heat Index:   Visibility: 5mi
Dew Point:   Wind: 2mph
Humidity: 93%   Direction: NA
Pressure: 29.94"   Gusts: NA
Location:  43.33°N, 21.9°E
Report Text: LYNI 240830Z VRB02KT 8000 SCT010 BKN015 06/05 Q1014 NOSIG
Loading
Personal Weather Stations






























Interactive Weather Map
Tropical Storm Tracking
New forecast layout! Learn more

10-Day Weather Forecast

Advertisements
Track Severe Weather on mobile